sensor_id;sensor_type;location;lat;lon;timestamp;temperature;humidity
68764;DHT22;55754;52.038;5.566;2022-11-15T00:01:53;7.90;89.30
68764;DHT22;55754;52.038;5.566;2022-11-15T00:04:18;7.80;90.00
68764;DHT22;55754;52.038;5.566;2022-11-15T00:06:44;7.90;90.00
68764;DHT22;55754;52.038;5.566;2022-11-15T00:09:09;7.90;90.00
68764;DHT22;55754;52.038;5.566;2022-11-15T00:11:35;7.90;90.00
68764;DHT22;55754;52.038;5.566;2022-11-15T00:14:00;7.90;90.10
68764;DHT22;55754;52.038;5.566;2022-11-15T00:16:27;8.00;90.20
68764;DHT22;55754;52.038;5.566;2022-11-15T00:18:53;7.90;90.10
68764;DHT22;55754;52.038;5.566;2022-11-15T00:21:19;7.90;90.20
68764;DHT22;55754;52.038;5.566;2022-11-15T00:23:44;8.00;90.40
68764;DHT22;55754;52.038;5.566;2022-11-15T00:26:12;8.00;90.60
68764;DHT22;55754;52.038;5.566;2022-11-15T00:28:39;8.00;90.50
68764;DHT22;55754;52.038;5.566;2022-11-15T00:31:06;8.00;90.60
68764;DHT22;55754;52.038;5.566;2022-11-15T00:33:34;8.00;90.50
68764;DHT22;55754;52.038;5.566;2022-11-15T00:36:00;8.00;90.50
68764;DHT22;55754;52.038;5.566;2022-11-15T00:38:31;8.00;90.70
68764;DHT22;55754;52.038;5.566;2022-11-15T00:40:57;8.00;90.90
68764;DHT22;55754;52.038;5.566;2022-11-15T00:43:22;8.00;90.80
68764;DHT22;55754;52.038;5.566;2022-11-15T00:45:48;8.00;91.00
68764;DHT22;55754;52.038;5.566;2022-11-15T00:48:13;8.00;91.00
68764;DHT22;55754;52.038;5.566;2022-11-15T00:50:39;8.00;91.00
68764;DHT22;55754;52.038;5.566;2022-11-15T00:53:07;8.00;91.00
68764;DHT22;55754;52.038;5.566;2022-11-15T00:55:33;8.00;91.10
68764;DHT22;55754;52.038;5.566;2022-11-15T00:57:58;8.10;91.20
68764;DHT22;55754;52.038;5.566;2022-11-15T01:00:24;8.10;91.20
68764;DHT22;55754;52.038;5.566;2022-11-15T01:02:49;8.00;91.40
68764;DHT22;55754;52.038;5.566;2022-11-15T01:05:15;8.10;91.30
68764;DHT22;55754;52.038;5.566;2022-11-15T01:07:44;8.10;91.40
68764;DHT22;55754;52.038;5.566;2022-11-15T01:10:10;8.10;91.60
68764;DHT22;55754;52.038;5.566;2022-11-15T01:12:36;8.10;91.60
68764;DHT22;55754;52.038;5.566;2022-11-15T01:15:01;8.10;91.70
68764;DHT22;55754;52.038;5.566;2022-11-15T01:17:27;8.10;91.70
68764;DHT22;55754;52.038;5.566;2022-11-15T01:19:52;8.10;91.70
68764;DHT22;55754;52.038;5.566;2022-11-15T01:22:18;8.10;91.70
68764;DHT22;55754;52.038;5.566;2022-11-15T01:24:44;8.10;91.70
68764;DHT22;55754;52.038;5.566;2022-11-15T01:27:09;8.10;91.90
68764;DHT22;55754;52.038;5.566;2022-11-15T01:29:35;8.10;92.20
68764;DHT22;55754;52.038;5.566;2022-11-15T01:32:00;8.10;92.10
68764;DHT22;55754;52.038;5.566;2022-11-15T01:34:26;8.10;92.00
68764;DHT22;55754;52.038;5.566;2022-11-15T01:36:51;8.20;92.10
68764;DHT22;55754;52.038;5.566;2022-11-15T01:39:17;8.10;92.10
68764;DHT22;55754;52.038;5.566;2022-11-15T01:41:43;8.20;92.20
68764;DHT22;55754;52.038;5.566;2022-11-15T01:46:56;8.20;92.40
68764;DHT22;55754;52.038;5.566;2022-11-15T01:49:24;8.20;92.70
68764;DHT22;55754;52.038;5.566;2022-11-15T01:51:50;8.20;92.20
68764;DHT22;55754;52.038;5.566;2022-11-15T01:54:18;8.20;92.20
68764;DHT22;55754;52.038;5.566;2022-11-15T01:56:51;8.30;92.30
68764;DHT22;55754;52.038;5.566;2022-11-15T01:59:19;8.30;92.30
68764;DHT22;55754;52.038;5.566;2022-11-15T02:01:45;8.30;92.50
68764;DHT22;55754;52.038;5.566;2022-11-15T02:04:13;8.30;92.40
68764;DHT22;55754;52.038;5.566;2022-11-15T02:06:41;8.30;92.50
68764;DHT22;55754;52.038;5.566;2022-11-15T02:09:07;8.30;92.50
68764;DHT22;55754;52.038;5.566;2022-11-15T02:11:36;8.40;92.50
68764;DHT22;55754;52.038;5.566;2022-11-15T02:14:03;8.40;92.50
68764;DHT22;55754;52.038;5.566;2022-11-15T02:19:28;8.40;92.50
68764;DHT22;55754;52.038;5.566;2022-11-15T02:27:39;8.50;92.70
68764;DHT22;55754;52.038;5.566;2022-11-15T02:30:36;8.50;92.80
68764;DHT22;55754;52.038;5.566;2022-11-15T02:33:23;8.50;92.80
68764;DHT22;55754;52.038;5.566;2022-11-15T02:39:19;8.60;92.90
68764;DHT22;55754;52.038;5.566;2022-11-15T02:42:04;8.60;93.20
68764;DHT22;55754;52.038;5.566;2022-11-15T02:44:53;8.60;93.10
68764;DHT22;55754;52.038;5.566;2022-11-15T02:47:21;8.60;93.00
68764;DHT22;55754;52.038;5.566;2022-11-15T02:49:52;8.70;93.10
68764;DHT22;55754;52.038;5.566;2022-11-15T02:52:20;8.70;93.10
68764;DHT22;55754;52.038;5.566;2022-11-15T02:55:02;8.70;93.10
68764;DHT22;55754;52.038;5.566;2022-11-15T03:10:40;8.90;93.60
68764;DHT22;55754;52.038;5.566;2022-11-15T03:13:25;8.90;93.70
68764;DHT22;55754;52.038;5.566;2022-11-15T03:16:02;8.90;93.70
68764;DHT22;55754;52.038;5.566;2022-11-15T03:18:37;8.90;93.80
68764;DHT22;55754;52.038;5.566;2022-11-15T03:21:06;9.00;94.20
68764;DHT22;55754;52.038;5.566;2022-11-15T03:23:33;9.00;93.80
68764;DHT22;55754;52.038;5.566;2022-11-15T03:26:00;9.00;93.70
68764;DHT22;55754;52.038;5.566;2022-11-15T03:28:34;9.00;93.80
68764;DHT22;55754;52.038;5.566;2022-11-15T03:31:05;9.10;93.80
68764;DHT22;55754;52.038;5.566;2022-11-15T03:33:53;9.10;93.70
68764;DHT22;55754;52.038;5.566;2022-11-15T03:36:22;9.10;93.70
68764;DHT22;55754;52.038;5.566;2022-11-15T03:38:48;9.20;93.80
68764;DHT22;55754;52.038;5.566;2022-11-15T03:41:24;9.20;93.80
68764;DHT22;55754;52.038;5.566;2022-11-15T03:43:57;9.30;94.10
68764;DHT22;55754;52.038;5.566;2022-11-15T03:46:32;9.30;94.00
68764;DHT22;55754;52.038;5.566;2022-11-15T03:49:09;9.30;94.10
68764;DHT22;55754;52.038;5.566;2022-11-15T03:51:37;9.30;94.10
68764;DHT22;55754;52.038;5.566;2022-11-15T03:54:04;9.40;94.10
68764;DHT22;55754;52.038;5.566;2022-11-15T03:56:29;9.50;94.10
68764;DHT22;55754;52.038;5.566;2022-11-15T03:58:55;9.50;94.20
68764;DHT22;55754;52.038;5.566;2022-11-15T04:01:20;9.50;94.60
68764;DHT22;55754;52.038;5.566;2022-11-15T04:03:46;9.60;94.40
68764;DHT22;55754;52.038;5.566;2022-11-15T04:06:11;9.60;94.60
68764;DHT22;55754;52.038;5.566;2022-11-15T04:08:37;9.70;94.60
68764;DHT22;55754;52.038;5.566;2022-11-15T04:11:03;9.70;94.60
68764;DHT22;55754;52.038;5.566;2022-11-15T04:13:28;9.70;94.60
68764;DHT22;55754;52.038;5.566;2022-11-15T04:15:54;9.70;94.50
68764;DHT22;55754;52.038;5.566;2022-11-15T04:18:19;9.80;94.70
68764;DHT22;55754;52.038;5.566;2022-11-15T04:20:45;9.80;94.70
68764;DHT22;55754;52.038;5.566;2022-11-15T04:23:29;9.80;94.90
68764;DHT22;55754;52.038;5.566;2022-11-15T04:26:18;9.90;94.80
68764;DHT22;55754;52.038;5.566;2022-11-15T04:28:44;9.90;94.80
68764;DHT22;55754;52.038;5.566;2022-11-15T04:31:28;9.90;94.80
68764;DHT22;55754;52.038;5.566;2022-11-15T04:33:54;10.00;94.90
68764;DHT22;55754;52.038;5.566;2022-11-15T04:36:21;10.00;94.90
68764;DHT22;55754;52.038;5.566;2022-11-15T04:39:08;10.00;94.80
68764;DHT22;55754;52.038;5.566;2022-11-15T04:41:34;10.00;94.90
68764;DHT22;55754;52.038;5.566;2022-11-15T04:43:59;10.00;94.90
68764;DHT22;55754;52.038;5.566;2022-11-15T04:46:25;10.00;94.90
68764;DHT22;55754;52.038;5.566;2022-11-15T04:48:51;10.10;94.90
68764;DHT22;55754;52.038;5.566;2022-11-15T04:51:17;10.10;95.00
68764;DHT22;55754;52.038;5.566;2022-11-15T04:53:43;10.20;95.00
68764;DHT22;55754;52.038;5.566;2022-11-15T04:56:09;10.10;94.90
68764;DHT22;55754;52.038;5.566;2022-11-15T04:58:34;10.10;94.90
68764;DHT22;55754;52.038;5.566;2022-11-15T05:01:14;10.20;94.90
68764;DHT22;55754;52.038;5.566;2022-11-15T05:03:43;10.20;94.80
68764;DHT22;55754;52.038;5.566;2022-11-15T05:06:27;10.20;94.80
68764;DHT22;55754;52.038;5.566;2022-11-15T05:08:53;10.20;94.90
68764;DHT22;55754;52.038;5.566;2022-11-15T05:11:19;10.20;94.80
68764;DHT22;55754;52.038;5.566;2022-11-15T05:13:45;10.30;94.80
68764;DHT22;55754;52.038;5.566;2022-11-15T05:16:11;10.30;95.00
68764;DHT22;55754;52.038;5.566;2022-11-15T05:18:36;10.30;94.90
68764;DHT22;55754;52.038;5.566;2022-11-15T05:21:06;10.30;94.80
68764;DHT22;55754;52.038;5.566;2022-11-15T05:23:32;10.30;94.90
68764;DHT22;55754;52.038;5.566;2022-11-15T05:26:02;10.30;94.90
68764;DHT22;55754;52.038;5.566;2022-11-15T05:28:28;10.40;94.80
68764;DHT22;55754;52.038;5.566;2022-11-15T05:31:10;10.40;95.00
68764;DHT22;55754;52.038;5.566;2022-11-15T05:33:37;10.40;95.00
68764;DHT22;55754;52.038;5.566;2022-11-15T05:38:33;10.40;95.00
68764;DHT22;55754;52.038;5.566;2022-11-15T05:41:00;10.50;95.00
68764;DHT22;55754;52.038;5.566;2022-11-15T05:43:26;10.50;95.00
68764;DHT22;55754;52.038;5.566;2022-11-15T05:45:52;10.50;95.10
68764;DHT22;55754;52.038;5.566;2022-11-15T05:48:18;10.50;95.00
68764;DHT22;55754;52.038;5.566;2022-11-15T05:50:46;10.60;95.00
68764;DHT22;55754;52.038;5.566;2022-11-15T05:53:14;10.60;95.00
68764;DHT22;55754;52.038;5.566;2022-11-15T05:55:44;10.60;95.00
68764;DHT22;55754;52.038;5.566;2022-11-15T05:58:10;10.60;95.10
68764;DHT22;55754;52.038;5.566;2022-11-15T06:00:36;10.60;95.00
68764;DHT22;55754;52.038;5.566;2022-11-15T06:03:02;10.60;95.10
68764;DHT22;55754;52.038;5.566;2022-11-15T06:05:28;10.70;95.10
68764;DHT22;55754;52.038;5.566;2022-11-15T06:07:57;10.70;95.30
68764;DHT22;55754;52.038;5.566;2022-11-15T06:10:23;10.70;95.10
68764;DHT22;55754;52.038;5.566;2022-11-15T06:12:56;10.70;95.20
68764;DHT22;55754;52.038;5.566;2022-11-15T06:15:22;10.70;95.00
68764;DHT22;55754;52.038;5.566;2022-11-15T06:17:47;10.80;95.00
68764;DHT22;55754;52.038;5.566;2022-11-15T06:20:13;10.80;95.10
68764;DHT22;55754;52.038;5.566;2022-11-15T06:22:41;10.80;95.00
68764;DHT22;55754;52.038;5.566;2022-11-15T06:25:07;10.70;95.00
68764;DHT22;55754;52.038;5.566;2022-11-15T06:27:33;10.80;95.00
68764;DHT22;55754;52.038;5.566;2022-11-15T06:29:58;10.80;95.10
68764;DHT22;55754;52.038;5.566;2022-11-15T06:32:24;10.80;95.10
68764;DHT22;55754;52.038;5.566;2022-11-15T06:34:49;10.80;95.00
68764;DHT22;55754;52.038;5.566;2022-11-15T06:37:15;10.90;95.00
68764;DHT22;55754;52.038;5.566;2022-11-15T06:39:40;10.80;95.00
68764;DHT22;55754;52.038;5.566;2022-11-15T06:42:08;10.90;95.10
68764;DHT22;55754;52.038;5.566;2022-11-15T06:44:34;10.90;95.00
68764;DHT22;55754;52.038;5.566;2022-11-15T06:46:59;10.90;94.90
68764;DHT22;55754;52.038;5.566;2022-11-15T06:49:25;10.90;95.10
68764;DHT22;55754;52.038;5.566;2022-11-15T06:51:50;10.90;95.10
68764;DHT22;55754;52.038;5.566;2022-11-15T06:54:16;10.90;95.00
68764;DHT22;55754;52.038;5.566;2022-11-15T06:56:41;10.90;95.10
68764;DHT22;55754;52.038;5.566;2022-11-15T06:59:07;11.00;95.10
68764;DHT22;55754;52.038;5.566;2022-11-15T07:01:32;11.00;95.00
68764;DHT22;55754;52.038;5.566;2022-11-15T07:03:58;11.00;95.10
68764;DHT22;55754;52.038;5.566;2022-11-15T07:06:23;11.00;95.10
68764;DHT22;55754;52.038;5.566;2022-11-15T07:08:49;11.00;95.00
68764;DHT22;55754;52.038;5.566;2022-11-15T07:11:14;11.00;95.10
68764;DHT22;55754;52.038;5.566;2022-11-15T07:13:40;11.00;94.90
68764;DHT22;55754;52.038;5.566;2022-11-15T07:16:08;11.00;94.90
68764;DHT22;55754;52.038;5.566;2022-11-15T07:18:35;11.00;94.90
68764;DHT22;55754;52.038;5.566;2022-11-15T07:21:05;11.00;94.90
68764;DHT22;55754;52.038;5.566;2022-11-15T07:23:31;11.10;94.90
68764;DHT22;55754;52.038;5.566;2022-11-15T07:25:57;11.10;94.90
68764;DHT22;55754;52.038;5.566;2022-11-15T07:28:27;11.10;95.00
68764;DHT22;55754;52.038;5.566;2022-11-15T07:30:52;11.10;94.90
68764;DHT22;55754;52.038;5.566;2022-11-15T07:33:18;11.10;94.80
68764;DHT22;55754;52.038;5.566;2022-11-15T07:35:43;11.10;94.90
68764;DHT22;55754;52.038;5.566;2022-11-15T07:38:11;11.10;94.80
68764;DHT22;55754;52.038;5.566;2022-11-15T07:40:37;11.10;94.80
68764;DHT22;55754;52.038;5.566;2022-11-15T07:43:05;11.10;94.80
68764;DHT22;55754;52.038;5.566;2022-11-15T07:45:32;11.10;94.80
68764;DHT22;55754;52.038;5.566;2022-11-15T07:48:01;11.10;94.70
68764;DHT22;55754;52.038;5.566;2022-11-15T07:50:27;11.20;94.80
68764;DHT22;55754;52.038;5.566;2022-11-15T07:52:56;11.20;94.60
68764;DHT22;55754;52.038;5.566;2022-11-15T07:55:23;11.20;94.70
68764;DHT22;55754;52.038;5.566;2022-11-15T07:57:48;11.20;94.70
68764;DHT22;55754;52.038;5.566;2022-11-15T08:00:14;11.20;94.60
68764;DHT22;55754;52.038;5.566;2022-11-15T08:02:40;11.20;94.50
68764;DHT22;55754;52.038;5.566;2022-11-15T08:05:06;11.20;94.50
68764;DHT22;55754;52.038;5.566;2022-11-15T08:07:32;11.30;94.50
68764;DHT22;55754;52.038;5.566;2022-11-15T08:09:58;11.30;94.40
68764;DHT22;55754;52.038;5.566;2022-11-15T08:12:24;11.30;94.40
68764;DHT22;55754;52.038;5.566;2022-11-15T08:14:49;11.30;94.30
68764;DHT22;55754;52.038;5.566;2022-11-15T08:17:15;11.30;94.30
68764;DHT22;55754;52.038;5.566;2022-11-15T08:19:40;11.30;94.30
68764;DHT22;55754;52.038;5.566;2022-11-15T08:22:07;11.30;94.20
68764;DHT22;55754;52.038;5.566;2022-11-15T08:24:32;11.30;94.10
68764;DHT22;55754;52.038;5.566;2022-11-15T08:26:58;11.40;94.10
68764;DHT22;55754;52.038;5.566;2022-11-15T08:29:23;11.30;94.00
68764;DHT22;55754;52.038;5.566;2022-11-15T08:31:54;11.40;94.00
68764;DHT22;55754;52.038;5.566;2022-11-15T08:34:26;11.40;93.90
68764;DHT22;55754;52.038;5.566;2022-11-15T08:36:52;11.40;93.90
68764;DHT22;55754;52.038;5.566;2022-11-15T08:39:17;11.40;93.80
68764;DHT22;55754;52.038;5.566;2022-11-15T08:41:43;11.40;93.70
68764;DHT22;55754;52.038;5.566;2022-11-15T08:44:09;11.50;93.70
68764;DHT22;55754;52.038;5.566;2022-11-15T08:46:38;12.00;93.70
68764;DHT22;55754;52.038;5.566;2022-11-15T08:49:03;11.50;93.50
68764;DHT22;55754;52.038;5.566;2022-11-15T08:51:29;11.60;93.40
68764;DHT22;55754;52.038;5.566;2022-11-15T08:53:54;11.60;93.40
68764;DHT22;55754;52.038;5.566;2022-11-15T08:56:20;11.50;93.10
68764;DHT22;55754;52.038;5.566;2022-11-15T08:58:45;11.60;93.10
68764;DHT22;55754;52.038;5.566;2022-11-15T09:01:19;11.60;93.00
68764;DHT22;55754;52.038;5.566;2022-11-15T09:03:44;11.60;92.90
68764;DHT22;55754;52.038;5.566;2022-11-15T09:06:10;11.60;92.80
68764;DHT22;55754;52.038;5.566;2022-11-15T09:08:36;11.70;92.70
68764;DHT22;55754;52.038;5.566;2022-11-15T09:11:08;11.70;92.70
68764;DHT22;55754;52.038;5.566;2022-11-15T09:13:35;11.70;92.60
68764;DHT22;55754;52.038;5.566;2022-11-15T09:16:03;11.60;92.50
68764;DHT22;55754;52.038;5.566;2022-11-15T09:18:29;11.60;92.50
68764;DHT22;55754;52.038;5.566;2022-11-15T09:20:55;11.60;92.60
68764;DHT22;55754;52.038;5.566;2022-11-15T09:23:22;11.60;92.50
68764;DHT22;55754;52.038;5.566;2022-11-15T09:25:47;11.70;92.50
68764;DHT22;55754;52.038;5.566;2022-11-15T09:28:13;11.70;92.50
68764;DHT22;55754;52.038;5.566;2022-11-15T09:30:41;11.70;92.40
68764;DHT22;55754;52.038;5.566;2022-11-15T09:33:08;11.70;92.30
68764;DHT22;55754;52.038;5.566;2022-11-15T09:35:34;11.70;92.40
68764;DHT22;55754;52.038;5.566;2022-11-15T09:38:00;11.70;92.40
68764;DHT22;55754;52.038;5.566;2022-11-15T09:40:25;11.70;92.40
68764;DHT22;55754;52.038;5.566;2022-11-15T09:46:36;11.80;92.30
68764;DHT22;55754;52.038;5.566;2022-11-15T09:48:59;11.90;92.30
68764;DHT22;55754;52.038;5.566;2022-11-15T09:51:36;11.90;92.50
68764;DHT22;55754;52.038;5.566;2022-11-15T09:56:37;12.10;91.50
68764;DHT22;55754;52.038;5.566;2022-11-15T09:59:29;12.10;91.00
68764;DHT22;55754;52.038;5.566;2022-11-15T10:04:57;12.20;90.90
68764;DHT22;55754;52.038;5.566;2022-11-15T10:10:24;12.20;90.40
68764;DHT22;55754;52.038;5.566;2022-11-15T10:12:52;12.20;90.30
68764;DHT22;55754;52.038;5.566;2022-11-15T10:15:18;12.20;90.60
68764;DHT22;55754;52.038;5.566;2022-11-15T10:20:30;12.30;90.00
68764;DHT22;55754;52.038;5.566;2022-11-15T10:22:59;12.40;89.40
68764;DHT22;55754;52.038;5.566;2022-11-15T10:25:27;12.40;88.00
68764;DHT22;55754;52.038;5.566;2022-11-15T10:28:15;12.40;88.30
68764;DHT22;55754;52.038;5.566;2022-11-15T10:30:52;12.40;88.20
68764;DHT22;55754;52.038;5.566;2022-11-15T10:33:39;12.40;87.00
68764;DHT22;55754;52.038;5.566;2022-11-15T10:38:47;12.40;87.30
68764;DHT22;55754;52.038;5.566;2022-11-15T10:41:40;11.50;85.90
68764;DHT22;55754;52.038;5.566;2022-11-15T10:44:17;12.40;85.80
68764;DHT22;55754;52.038;5.566;2022-11-15T10:47:04;12.40;86.00
68764;DHT22;55754;52.038;5.566;2022-11-15T10:49:32;12.50;86.10
68764;DHT22;55754;52.038;5.566;2022-11-15T10:52:13;12.70;85.70
68764;DHT22;55754;52.038;5.566;2022-11-15T10:55:27;12.70;85.10
68764;DHT22;55754;52.038;5.566;2022-11-15T10:57:29;12.80;84.70
68764;DHT22;55754;52.038;5.566;2022-11-15T11:00:02;12.80;84.00
68764;DHT22;55754;52.038;5.566;2022-11-15T11:02:37;12.80;83.60
68764;DHT22;55754;52.038;5.566;2022-11-15T11:07:57;12.80;81.90
68764;DHT22;55754;52.038;5.566;2022-11-15T11:10:24;12.70;81.80
68764;DHT22;55754;52.038;5.566;2022-11-15T11:12:49;12.80;81.90
68764;DHT22;55754;52.038;5.566;2022-11-15T11:15:16;12.70;81.60
68764;DHT22;55754;52.038;5.566;2022-11-15T11:17:55;12.70;81.30
68764;DHT22;55754;52.038;5.566;2022-11-15T11:31:25;12.90;80.20
68764;DHT22;55754;52.038;5.566;2022-11-15T11:36:59;12.90;80.20
68764;DHT22;55754;52.038;5.566;2022-11-15T11:48:14;12.80;79.10
68764;DHT22;55754;52.038;5.566;2022-11-15T11:50:44;12.80;79.60
68764;DHT22;55754;52.038;5.566;2022-11-15T11:53:21;12.80;79.80
68764;DHT22;55754;52.038;5.566;2022-11-15T11:55:53;12.90;79.60
68764;DHT22;55754;52.038;5.566;2022-11-15T11:58:41;12.90;79.30
68764;DHT22;55754;52.038;5.566;2022-11-15T12:03:44;13.00;77.60
68764;DHT22;55754;52.038;5.566;2022-11-15T12:06:22;13.00;76.90
68764;DHT22;55754;52.038;5.566;2022-11-15T12:08:59;13.00;76.90
68764;DHT22;55754;52.038;5.566;2022-11-15T12:14:02;13.10;75.50
68764;DHT22;55754;52.038;5.566;2022-11-15T12:16:32;13.10;76.10
68764;DHT22;55754;52.038;5.566;2022-11-15T12:19:03;13.90;76.10
68764;DHT22;55754;52.038;5.566;2022-11-15T12:24:01;13.00;75.60
68764;DHT22;55754;52.038;5.566;2022-11-15T12:26:38;13.00;75.00
68764;DHT22;55754;52.038;5.566;2022-11-15T12:29:18;12.90;75.00
68764;DHT22;55754;52.038;5.566;2022-11-15T12:31:49;12.90;74.90
68764;DHT22;55754;52.038;5.566;2022-11-15T12:34:28;12.90;74.90
68764;DHT22;55754;52.038;5.566;2022-11-15T12:36:55;12.80;75.30
68764;DHT22;55754;52.038;5.566;2022-11-15T12:39:21;12.80;75.30
68764;DHT22;55754;52.038;5.566;2022-11-15T12:59:54;12.80;75.30
68764;DHT22;55754;52.038;5.566;2022-11-15T13:10:34;12.80;75.30
68764;DHT22;55754;52.038;5.566;2022-11-15T13:13:08;12.90;75.00
68764;DHT22;55754;52.038;5.566;2022-11-15T13:15:43;12.80;75.10
68764;DHT22;55754;52.038;5.566;2022-11-15T13:18:31;12.80;74.60
68764;DHT22;55754;52.038;5.566;2022-11-15T13:20:58;12.70;74.20
68764;DHT22;55754;52.038;5.566;2022-11-15T13:23:23;12.70;74.40
68764;DHT22;55754;52.038;5.566;2022-11-15T13:31:27;12.70;73.40
68764;DHT22;55754;52.038;5.566;2022-11-15T13:33:57;12.70;73.90
68764;DHT22;55754;52.038;5.566;2022-11-15T13:36:27;12.60;74.10
68764;DHT22;55754;52.038;5.566;2022-11-15T13:38:56;12.60;74.00
68764;DHT22;55754;52.038;5.566;2022-11-15T13:41:25;12.60;73.40
68764;DHT22;55754;52.038;5.566;2022-11-15T13:43:53;12.60;74.10
68764;DHT22;55754;52.038;5.566;2022-11-15T13:46:26;12.60;74.00
68764;DHT22;55754;52.038;5.566;2022-11-15T13:49:01;12.60;74.50
68764;DHT22;55754;52.038;5.566;2022-11-15T13:51:43;12.60;74.60
68764;DHT22;55754;52.038;5.566;2022-11-15T13:56:42;12.50;73.90
68764;DHT22;55754;52.038;5.566;2022-11-15T13:59:28;12.50;74.30
68764;DHT22;55754;52.038;5.566;2022-11-15T14:01:55;12.50;74.20
68764;DHT22;55754;52.038;5.566;2022-11-15T14:04:23;12.50;74.00
68764;DHT22;55754;52.038;5.566;2022-11-15T14:06:53;12.50;73.90
68764;DHT22;55754;52.038;5.566;2022-11-15T14:09:30;12.50;74.00
68764;DHT22;55754;52.038;5.566;2022-11-15T14:12:19;12.50;73.60
68764;DHT22;55754;52.038;5.566;2022-11-15T14:14:49;12.40;73.60
68764;DHT22;55754;52.038;5.566;2022-11-15T14:17:33;12.40;73.90
68764;DHT22;55754;52.038;5.566;2022-11-15T14:20:18;12.40;73.60
68764;DHT22;55754;52.038;5.566;2022-11-15T14:22:54;12.40;74.00
68764;DHT22;55754;52.038;5.566;2022-11-15T14:25:26;12.40;74.10
68764;DHT22;55754;52.038;5.566;2022-11-15T14:30:41;12.40;73.80
68764;DHT22;55754;52.038;5.566;2022-11-15T14:35:51;12.40;73.40
68764;DHT22;55754;52.038;5.566;2022-11-15T14:38:18;12.40;73.70
68764;DHT22;55754;52.038;5.566;2022-11-15T14:40:44;12.40;73.30
68764;DHT22;55754;52.038;5.566;2022-11-15T14:43:11;12.40;73.10
68764;DHT22;55754;52.038;5.566;2022-11-15T14:45:37;12.40;73.30
68764;DHT22;55754;52.038;5.566;2022-11-15T14:48:03;12.40;73.40
68764;DHT22;55754;52.038;5.566;2022-11-15T14:50:29;12.40;73.00
68764;DHT22;55754;52.038;5.566;2022-11-15T14:52:54;12.40;72.90
68764;DHT22;55754;52.038;5.566;2022-11-15T14:55:29;12.50;73.10
68764;DHT22;55754;52.038;5.566;2022-11-15T14:57:56;12.50;72.80
68764;DHT22;55754;52.038;5.566;2022-11-15T15:00:22;12.40;72.70
68764;DHT22;55754;52.038;5.566;2022-11-15T15:02:48;12.40;72.80
68764;DHT22;55754;52.038;5.566;2022-11-15T15:05:44;12.40;72.70
68764;DHT22;55754;52.038;5.566;2022-11-15T15:08:10;12.50;72.20
68764;DHT22;55754;52.038;5.566;2022-11-15T15:10:38;12.40;72.90
68764;DHT22;55754;52.038;5.566;2022-11-15T15:13:05;12.40;72.40
68764;DHT22;55754;52.038;5.566;2022-11-15T15:15:36;12.40;72.70
68764;DHT22;55754;52.038;5.566;2022-11-15T15:18:03;12.40;72.50
68764;DHT22;55754;52.038;5.566;2022-11-15T15:20:31;12.40;72.90
68764;DHT22;55754;52.038;5.566;2022-11-15T15:22:56;12.40;72.80
68764;DHT22;55754;52.038;5.566;2022-11-15T15:25:31;12.40;72.70
68764;DHT22;55754;52.038;5.566;2022-11-15T15:27:57;12.40;72.60
68764;DHT22;55754;52.038;5.566;2022-11-15T15:30:23;12.40;72.80
68764;DHT22;55754;52.038;5.566;2022-11-15T15:32:49;12.40;72.60
68764;DHT22;55754;52.038;5.566;2022-11-15T15:35:16;12.40;72.40
68764;DHT22;55754;52.038;5.566;2022-11-15T15:37:46;12.40;72.50
68764;DHT22;55754;52.038;5.566;2022-11-15T15:40:20;12.40;72.60
68764;DHT22;55754;52.038;5.566;2022-11-15T15:42:49;12.40;72.50
68764;DHT22;55754;52.038;5.566;2022-11-15T15:45:16;12.40;72.40
68764;DHT22;55754;52.038;5.566;2022-11-15T15:47:42;12.40;72.30
68764;DHT22;55754;52.038;5.566;2022-11-15T15:50:31;12.40;72.40
68764;DHT22;55754;52.038;5.566;2022-11-15T15:52:59;12.40;72.40
68764;DHT22;55754;52.038;5.566;2022-11-15T15:55:36;12.40;72.50
68764;DHT22;55754;52.038;5.566;2022-11-15T15:58:05;12.40;72.20
68764;DHT22;55754;52.038;5.566;2022-11-15T16:00:31;12.40;72.30
68764;DHT22;55754;52.038;5.566;2022-11-15T16:02:59;12.40;72.20
68764;DHT22;55754;52.038;5.566;2022-11-15T16:05:25;12.40;72.10
68764;DHT22;55754;52.038;5.566;2022-11-15T16:07:51;12.40;72.30
68764;DHT22;55754;52.038;5.566;2022-11-15T16:10:25;12.40;72.30
68764;DHT22;55754;52.038;5.566;2022-11-15T16:12:52;12.40;72.40
68764;DHT22;55754;52.038;5.566;2022-11-15T16:15:19;12.40;72.30
68764;DHT22;55754;52.038;5.566;2022-11-15T16:17:49;12.40;72.60
68764;DHT22;55754;52.038;5.566;2022-11-15T16:20:39;12.40;72.40
68764;DHT22;55754;52.038;5.566;2022-11-15T16:23:11;12.40;72.30
68764;DHT22;55754;52.038;5.566;2022-11-15T16:25:57;12.40;72.70
68764;DHT22;55754;52.038;5.566;2022-11-15T16:28:28;12.40;72.40
68764;DHT22;55754;52.038;5.566;2022-11-15T16:31:03;12.40;72.70
68764;DHT22;55754;52.038;5.566;2022-11-15T16:33:29;12.50;72.80
68764;DHT22;55754;52.038;5.566;2022-11-15T16:35:54;12.40;74.00
68764;DHT22;55754;52.038;5.566;2022-11-15T16:38:20;12.40;73.10
68764;DHT22;55754;52.038;5.566;2022-11-15T16:40:45;12.50;73.20
68764;DHT22;55754;52.038;5.566;2022-11-15T16:43:11;12.40;73.40
68764;DHT22;55754;52.038;5.566;2022-11-15T16:45:37;12.50;73.40
68764;DHT22;55754;52.038;5.566;2022-11-15T16:48:03;12.50;73.50
68764;DHT22;55754;52.038;5.566;2022-11-15T16:50:32;12.50;73.60
68764;DHT22;55754;52.038;5.566;2022-11-15T16:53:04;12.50;73.90
68764;DHT22;55754;52.038;5.566;2022-11-15T16:55:29;12.50;73.90
68764;DHT22;55754;52.038;5.566;2022-11-15T16:57:56;12.60;74.20
68764;DHT22;55754;52.038;5.566;2022-11-15T17:00:26;12.60;74.20
68764;DHT22;55754;52.038;5.566;2022-11-15T17:02:52;12.60;74.40
68764;DHT22;55754;52.038;5.566;2022-11-15T17:05:21;12.60;74.60
68764;DHT22;55754;52.038;5.566;2022-11-15T17:07:48;12.60;75.20
68764;DHT22;55754;52.038;5.566;2022-11-15T17:10:15;12.60;75.80
68764;DHT22;55754;52.038;5.566;2022-11-15T17:12:41;12.60;76.00
68764;DHT22;55754;52.038;5.566;2022-11-15T17:15:06;12.60;76.40
68764;DHT22;55754;52.038;5.566;2022-11-15T17:17:32;12.50;77.10
68764;DHT22;55754;52.038;5.566;2022-11-15T17:19:58;12.50;77.20
68764;DHT22;55754;52.038;5.566;2022-11-15T17:22:24;12.50;77.40
68764;DHT22;55754;52.038;5.566;2022-11-15T17:24:49;12.50;77.90
68764;DHT22;55754;52.038;5.566;2022-11-15T17:27:15;12.50;78.30
68764;DHT22;55754;52.038;5.566;2022-11-15T17:29:41;12.40;78.70
68764;DHT22;55754;52.038;5.566;2022-11-15T17:32:07;12.40;79.00
68764;DHT22;55754;52.038;5.566;2022-11-15T17:34:33;12.40;79.40
68764;DHT22;55754;52.038;5.566;2022-11-15T17:36:59;12.40;79.80
68764;DHT22;55754;52.038;5.566;2022-11-15T17:39:25;12.40;80.00
68764;DHT22;55754;52.038;5.566;2022-11-15T17:41:50;12.40;80.10
68764;DHT22;55754;52.038;5.566;2022-11-15T17:44:16;12.40;80.50
68764;DHT22;55754;52.038;5.566;2022-11-15T17:46:42;12.40;80.60
68764;DHT22;55754;52.038;5.566;2022-11-15T17:49:08;12.40;80.80